Time;durP1;ratioP1;P1;durP2;ratioP2;P2;SDS_P1;SDS_P2;PMS_P1;PMS_P2;Temp;Humidity;BMP_temperature;BMP_pressure;BME280_temperature;BME280_humidity;BME280_pressure;Samples;Min_cycle;Max_cycle;Signal;HPM_P1;HPM_P2
2022/05/15 00:00:55;;;;;;;4.05;2.35;;;;;;;;;;5058506;28;20287;-83
2022/05/15 00:03:25;;;;;;;4.00;2.33;;;;;;;;;;5057695;28;20572;-83
2022/05/15 00:05:56;;;;;;;3.00;2.05;;;;;;;;;;5058253;28;20206;-83
2022/05/15 00:08:26;;;;;;;3.30;1.88;;;;;;;;;;5058428;28;20204;-83
2022/05/15 00:10:55;;;;;;;3.47;1.80;;;;;;;;;;5057863;28;20654;-84
2022/05/15 00:13:24;;;;;;;1.95;1.58;;;;;;;;;;5056469;28;20214;-83
2022/05/15 00:15:51;;;;;;;3.22;2.05;;;;;;;;;;5059438;28;20205;-83
2022/05/15 00:18:23;;;;;;;3.65;2.35;;;;;;;;;;5058044;28;20657;-83
2022/05/15 00:20:51;;;;;;;4.03;2.50;;;;;;;;;;5057129;28;20225;-84
2022/05/15 00:23:21;;;;;;;2.58;2.22;;;;;;;;;;5056182;28;20206;-84
2022/05/15 00:25:49;;;;;;;3.58;1.80;;;;;;;;;;5057847;28;20205;-84
2022/05/15 00:28:16;;;;;;;3.10;2.22;;;;;;;;;;5057903;28;20749;-84
2022/05/15 00:30:45;;;;;;;3.83;2.13;;;;;;;;;;5057888;28;20225;-83
2022/05/15 00:33:12;;;;;;;4.95;3.20;;;;;;;;;;5057234;28;20232;-82
2022/05/15 00:35:41;;;;;;;2.45;1.88;;;;;;;;;;5058276;28;20205;-83
2022/05/15 00:38:11;;;;;;;2.28;1.85;;;;;;;;;;5056607;28;20666;-85
2022/05/15 00:40:41;;;;;;;3.30;1.98;;;;;;;;;;5057557;28;20228;-83
2022/05/15 00:43:11;;;;;;;4.13;2.60;;;;;;;;;;5056785;28;20201;-83
2022/05/15 00:45:38;;;;;;;3.10;2.28;;;;;;;;;;5057228;28;20202;-83
2022/05/15 00:48:07;;;;;;;2.88;1.80;;;;;;;;;;5056235;28;20209;-83
2022/05/15 00:50:37;;;;;;;2.67;2.17;;;;;;;;;;5056327;28;20217;-83
2022/05/15 00:53:09;;;;;;;2.47;1.90;;;;;;;;;;5056238;28;20222;-83
2022/05/15 00:55:42;;;;;;;3.25;2.10;;;;;;;;;;5057875;28;20178;-83
2022/05/15 00:58:15;;;;;;;4.28;2.30;;;;;;;;;;5057666;28;20261;-83
2022/05/15 01:00:43;;;;;;;2.90;2.13;;;;;;;;;;5057313;28;20221;-83
2022/05/15 01:03:14;;;;;;;2.40;1.95;;;;;;;;;;5056026;28;20223;-84
2022/05/15 01:05:44;;;;;;;3.08;2.17;;;;;;;;;;5057186;28;20201;-83
2022/05/15 01:08:13;;;;;;;4.68;1.88;;;;;;;;;;5056928;28;20605;-83
2022/05/15 01:10:44;;;;;;;2.72;2.20;;;;;;;;;;5057160;28;20257;-83
2022/05/15 01:13:13;;;;;;;2.58;1.95;;;;;;;;;;5055182;28;20222;-84
2022/05/15 01:15:41;;;;;;;3.38;1.67;;;;;;;;;;5057299;28;20686;-83
2022/05/15 01:18:10;;;;;;;3.72;2.60;;;;;;;;;;5057292;28;20201;-83
2022/05/15 01:20:40;;;;;;;3.17;2.10;;;;;;;;;;5057043;28;20232;-83
2022/05/15 01:23:09;;;;;;;4.78;2.25;;;;;;;;;;5055993;28;20210;-84
2022/05/15 01:25:38;;;;;;;2.83;1.60;;;;;;;;;;5057070;28;20607;-83
2022/05/15 01:28:09;;;;;;;2.25;1.83;;;;;;;;;;5056359;28;20208;-85
2022/05/15 01:30:39;;;;;;;4.05;2.85;;;;;;;;;;5056528;28;20226;-84
2022/05/15 01:33:09;;;;;;;4.25;1.73;;;;;;;;;;5057423;28;20182;-83
2022/05/15 01:35:36;;;;;;;1.63;1.52;;;;;;;;;;5057389;28;20209;-83
2022/05/15 01:38:04;;;;;;;2.85;2.47;;;;;;;;;;5056614;28;20198;-84
2022/05/15 01:40:34;;;;;;;3.22;2.35;;;;;;;;;;5057522;28;20233;-84
2022/05/15 01:43:02;;;;;;;4.07;1.85;;;;;;;;;;5056005;28;20213;-84
2022/05/15 01:45:29;;;;;;;2.33;2.10;;;;;;;;;;5056801;28;20197;-83
2022/05/15 01:47:57;;;;;;;3.13;2.25;;;;;;;;;;5056845;28;20204;-83
2022/05/15 01:50:24;;;;;;;5.95;3.25;;;;;;;;;;5057517;28;20232;-84
2022/05/15 01:52:52;;;;;;;3.45;2.25;;;;;;;;;;5055927;28;20289;-83
2022/05/15 01:55:20;;;;;;;3.83;1.90;;;;;;;;;;5057179;28;20308;-83
2022/05/15 01:57:48;;;;;;;4.50;2.35;;;;;;;;;;5057190;28;20204;-83
2022/05/15 02:00:20;;;;;;;3.90;2.15;;;;;;;;;;5056210;28;20592;-82
2022/05/15 02:02:48;;;;;;;2.67;2.20;;;;;;;;;;5055692;28;20201;-83
2022/05/15 02:05:17;;;;;;;4.15;2.00;;;;;;;;;;5055743;28;20206;-82
2022/05/15 02:07:45;;;;;;;3.72;2.50;;;;;;;;;;5056029;28;20872;-83
2022/05/15 02:10:14;;;;;;;3.28;2.42;;;;;;;;;;5056126;28;20713;-82
2022/05/15 02:12:41;;;;;;;3.50;2.10;;;;;;;;;;5055498;28;20202;-85
2022/05/15 02:15:12;;;;;;;3.65;2.47;;;;;;;;;;5058156;28;20228;-83
2022/05/15 02:17:40;;;;;;;3.97;2.42;;;;;;;;;;5060160;28;20197;-84
2022/05/15 02:20:10;;;;;;;1.85;1.70;;;;;;;;;;5059809;28;20221;-82
2022/05/15 02:22:38;;;;;;;5.00;2.20;;;;;;;;;;5059500;28;20213;-82
2022/05/15 02:25:08;;;;;;;5.70;2.42;;;;;;;;;;5059967;28;20202;-82
2022/05/15 02:27:36;;;;;;;7.13;2.65;;;;;;;;;;5059777;28;20199;-84
2022/05/15 02:30:06;;;;;;;5.32;2.60;;;;;;;;;;5059831;28;20222;-83
2022/05/15 02:32:35;;;;;;;4.00;2.50;;;;;;;;;;5060125;28;20208;-83
2022/05/15 02:35:03;;;;;;;4.03;2.28;;;;;;;;;;5059541;28;20236;-84
2022/05/15 02:37:31;;;;;;;3.53;2.03;;;;;;;;;;5059993;28;20208;-83
2022/05/15 02:39:58;;;;;;;3.60;2.03;;;;;;;;;;5060218;28;20784;-83
2022/05/15 02:42:26;;;;;;;5.43;2.72;;;;;;;;;;5060208;28;20293;-83
2022/05/15 02:44:54;;;;;;;4.25;2.20;;;;;;;;;;5060383;28;20197;-83
2022/05/15 02:47:21;;;;;;;4.72;2.30;;;;;;;;;;5060224;28;20300;-83
2022/05/15 02:52:35;;;;;;;5.05;2.60;;;;;;;;;;5059930;28;20216;-82
2022/05/15 02:55:03;;;;;;;3.75;1.98;;;;;;;;;;5059405;28;20773;-82
2022/05/15 02:57:30;;;;;;;3.67;2.42;;;;;;;;;;5059277;28;20201;-83
2022/05/15 02:59:58;;;;;;;4.10;2.33;;;;;;;;;;5058775;28;20232;-83
2022/05/15 03:02:25;;;;;;;3.50;2.88;;;;;;;;;;5058126;28;20204;-83
2022/05/15 03:04:54;;;;;;;3.05;2.10;;;;;;;;;;5059870;28;20668;-82
2022/05/15 03:07:21;;;;;;;5.10;2.13;;;;;;;;;;5058492;28;20686;-84
2022/05/15 03:09:49;;;;;;;5.03;2.25;;;;;;;;;;5058890;28;20725;-83
2022/05/15 03:12:16;;;;;;;3.90;2.28;;;;;;;;;;5058178;28;20762;-82
2022/05/15 03:14:44;;;;;;;6.38;2.78;;;;;;;;;;5058990;28;20249;-84
2022/05/15 03:17:11;;;;;;;5.07;2.38;;;;;;;;;;5059236;28;20612;-84
2022/05/15 03:19:39;;;;;;;2.78;2.25;;;;;;;;;;5059479;28;20226;-82
2022/05/15 03:22:08;;;;;;;3.20;1.80;;;;;;;;;;5058440;28;20273;-83
2022/05/15 03:24:35;;;;;;;5.40;2.53;;;;;;;;;;5058763;28;20556;-82
2022/05/15 03:27:03;;;;;;;4.10;2.38;;;;;;;;;;5057898;28;20292;-83
2022/05/15 03:29:30;;;;;;;3.33;2.50;;;;;;;;;;5058491;28;20221;-84
2022/05/15 03:31:58;;;;;;;4.20;2.55;;;;;;;;;;5058478;28;20728;-83
2022/05/15 03:34:25;;;;;;;5.65;3.92;;;;;;;;;;5057885;28;20198;-83
2022/05/15 03:36:54;;;;;;;4.55;2.50;;;;;;;;;;5057670;28;20209;-82
2022/05/15 03:39:24;;;;;;;3.55;2.22;;;;;;;;;;5060064;28;20214;-82
2022/05/15 03:41:52;;;;;;;3.50;2.33;;;;;;;;;;5058157;28;20240;-83
2022/05/15 03:44:20;;;;;;;4.22;2.30;;;;;;;;;;5059720;28;20206;-83
2022/05/15 03:46:48;;;;;;;4.97;2.47;;;;;;;;;;5060968;28;20208;-83
2022/05/15 03:49:15;;;;;;;2.53;2.05;;;;;;;;;;5060628;28;20230;-83
2022/05/15 03:51:43;;;;;;;3.28;2.00;;;;;;;;;;5058424;28;20583;-83
2022/05/15 03:54:11;;;;;;;4.25;2.15;;;;;;;;;;5059506;28;20198;-82
2022/05/15 03:56:53;;;;;;;4.35;2.80;;;;;;;;;;5059574;28;20235;-83
2022/05/15 03:59:23;;;;;;;3.05;2.28;;;;;;;;;;5059755;28;20615;-83
2022/05/15 04:01:51;;;;;;;3.22;2.10;;;;;;;;;;5059223;28;20202;-82
2022/05/15 04:04:19;;;;;;;4.53;2.10;;;;;;;;;;5059551;28;20194;-85
2022/05/15 04:06:47;;;;;;;3.83;2.17;;;;;;;;;;5059630;28;20201;-82
2022/05/15 04:09:15;;;;;;;6.13;2.70;;;;;;;;;;5060504;28;20209;-82
2022/05/15 04:11:44;;;;;;;2.83;2.30;;;;;;;;;;5057315;28;20189;-83
2022/05/15 04:14:11;;;;;;;6.35;3.05;;;;;;;;;;5058596;28;20197;-84
2022/05/15 04:16:39;;;;;;;4.20;2.42;;;;;;;;;;5058211;28;20714;-82
2022/05/15 04:19:08;;;;;;;2.92;1.98;;;;;;;;;;5058550;28;20217;-83
2022/05/15 04:21:37;;;;;;;2.72;2.00;;;;;;;;;;5057239;28;20289;-86
2022/05/15 04:24:07;;;;;;;3.70;1.70;;;;;;;;;;5059372;28;20728;-83
2022/05/15 04:26:34;;;;;;;4.55;2.08;;;;;;;;;;5059060;28;20206;-83
2022/05/15 04:29:04;;;;;;;3.53;1.80;;;;;;;;;;5059109;28;20235;-83
2022/05/15 04:31:31;;;;;;;2.17;1.67;;;;;;;;;;5059026;28;20202;-87
2022/05/15 04:33:58;;;;;;;4.10;2.22;;;;;;;;;;5057875;28;20560;-83
2022/05/15 04:36:26;;;;;;;1.90;1.70;;;;;;;;;;5058269;28;20230;-83
2022/05/15 04:38:53;;;;;;;3.10;1.52;;;;;;;;;;5058256;28;20623;-83
2022/05/15 04:41:21;;;;;;;1.60;1.50;;;;;;;;;;5057279;28;20208;-83
2022/05/15 04:43:48;;;;;;;3.58;2.78;;;;;;;;;;5058163;28;20198;-83
2022/05/15 04:46:17;;;;;;;1.77;1.25;;;;;;;;;;5057148;28;20292;-83
2022/05/15 04:48:44;;;;;;;2.10;1.88;;;;;;;;;;5056712;28;20198;-82
2022/05/15 04:51:12;;;;;;;1.00;1.00;;;;;;;;;;5057442;28;20197;-83
2022/05/15 04:53:39;;;;;;;1.55;1.45;;;;;;;;;;5056061;28;20206;-83
2022/05/15 04:56:07;;;;;;;6.78;2.15;;;;;;;;;;5056798;28;20222;-84
2022/05/15 04:58:34;;;;;;;2.15;1.48;;;;;;;;;;5057440;28;20201;-84
2022/05/15 05:01:01;;;;;;;2.50;1.33;;;;;;;;;;5057521;28;20193;-83
2022/05/15 05:03:30;;;;;;;1.65;1.42;;;;;;;;;;5056925;28;20272;-82
2022/05/15 05:05:57;;;;;;;2.70;1.75;;;;;;;;;;5056751;28;20417;-82
2022/05/15 05:08:25;;;;;;;4.72;2.75;;;;;;;;;;5056307;28;20280;-83
2022/05/15 05:10:52;;;;;;;7.70;3.30;;;;;;;;;;5055893;28;20228;-83
2022/05/15 05:13:19;;;;;;;2.92;1.98;;;;;;;;;;5054988;28;20251;-82
2022/05/15 05:15:47;;;;;;;4.03;2.53;;;;;;;;;;5056321;28;20225;-84
2022/05/15 05:18:15;;;;;;;2.25;1.80;;;;;;;;;;5056296;28;20198;-83
2022/05/15 05:20:45;;;;;;;3.28;2.47;;;;;;;;;;5055950;28;20217;-84
2022/05/15 05:23:13;;;;;;;2.65;2.15;;;;;;;;;;5055840;28;20219;-83
2022/05/15 05:25:40;;;;;;;6.05;3.00;;;;;;;;;;5055354;28;20724;-84
2022/05/15 05:28:08;;;;;;;5.28;2.58;;;;;;;;;;5056116;28;20205;-83
2022/05/15 05:30:37;;;;;;;6.40;4.47;;;;;;;;;;5053587;28;20225;-82
2022/05/15 05:33:05;;;;;;;5.35;2.90;;;;;;;;;;5055354;28;20241;-82
2022/05/15 05:35:32;;;;;;;8.00;3.60;;;;;;;;;;5056392;28;20201;-83
2022/05/15 05:38:01;;;;;;;7.65;3.55;;;;;;;;;;5056460;28;20209;-83
2022/05/15 05:40:28;;;;;;;8.10;4.20;;;;;;;;;;5054723;28;20233;-82
2022/05/15 05:42:56;;;;;;;3.28;2.47;;;;;;;;;;5051592;28;20197;-78
2022/05/15 05:45:23;;;;;;;4.55;2.40;;;;;;;;;;5052391;28;20213;-78
2022/05/15 05:47:52;;;;;;;6.18;3.05;;;;;;;;;;5051858;28;20273;-77
2022/05/15 05:50:23;;;;;;;7.82;3.30;;;;;;;;;;5051508;28;20691;-77
2022/05/15 05:52:51;;;;;;;3.85;2.70;;;;;;;;;;5051540;28;20201;-77
2022/05/15 05:55:21;;;;;;;5.65;3.08;;;;;;;;;;5052096;28;20205;-78
2022/05/15 05:57:49;;;;;;;3.88;2.30;;;;;;;;;;5051715;28;20225;-77
2022/05/15 06:00:21;;;;;;;7.30;3.75;;;;;;;;;;5052724;28;20232;-78
2022/05/15 06:02:49;;;;;;;6.22;3.33;;;;;;;;;;5051904;28;20267;-78
2022/05/15 06:05:15;;;;;;;4.20;2.65;;;;;;;;;;5052165;28;20206;-77
2022/05/15 06:07:42;;;;;;;4.45;3.15;;;;;;;;;;5051718;28;20227;-77
2022/05/15 06:10:12;;;;;;;4.13;2.40;;;;;;;;;;5051809;28;20218;-78
2022/05/15 06:12:41;;;;;;;3.85;2.80;;;;;;;;;;5051259;28;20205;-78
2022/05/15 06:15:10;;;;;;;3.97;3.00;;;;;;;;;;5051999;28;20274;-78
2022/05/15 06:17:38;;;;;;;3.85;2.58;;;;;;;;;;5051447;28;20230;-77
2022/05/15 06:20:09;;;;;;;5.93;2.72;;;;;;;;;;5052072;28;20225;-78
2022/05/15 06:22:37;;;;;;;5.43;3.58;;;;;;;;;;5051211;28;20238;-78
2022/05/15 06:25:05;;;;;;;4.43;2.17;;;;;;;;;;5051894;28;20635;-78
2022/05/15 06:27:33;;;;;;;5.03;2.72;;;;;;;;;;5051734;28;20202;-77
2022/05/15 06:30:01;;;;;;;7.82;3.58;;;;;;;;;;5051450;28;20771;-77
2022/05/15 06:32:29;;;;;;;2.83;2.60;;;;;;;;;;5050995;28;20205;-78
2022/05/15 06:34:56;;;;;;;3.97;3.03;;;;;;;;;;5052017;28;20208;-77
2022/05/15 06:37:23;;;;;;;2.53;2.17;;;;;;;;;;5051478;28;20226;-78
2022/05/15 06:39:50;;;;;;;3.95;2.50;;;;;;;;;;5051524;28;20308;-78
2022/05/15 06:42:18;;;;;;;4.05;1.60;;;;;;;;;;5050482;28;20213;-77
2022/05/15 06:44:46;;;;;;;2.67;2.08;;;;;;;;;;5050992;28;20206;-77
2022/05/15 06:47:15;;;;;;;3.83;2.35;;;;;;;;;;5051696;28;20627;-78
2022/05/15 06:49:42;;;;;;;4.43;1.90;;;;;;;;;;5051291;28;20267;-77
2022/05/15 06:52:09;;;;;;;7.63;2.92;;;;;;;;;;5050995;28;20212;-77
2022/05/15 06:54:37;;;;;;;3.75;2.33;;;;;;;;;;5051567;28;20202;-78
2022/05/15 06:59:50;;;;;;;3.88;2.35;;;;;;;;;;5051683;28;20275;-77
2022/05/15 07:02:18;;;;;;;3.60;2.15;;;;;;;;;;5054665;28;20607;-78
2022/05/15 07:04:45;;;;;;;3.72;2.25;;;;;;;;;;5055176;28;20627;-78
2022/05/15 07:07:13;;;;;;;2.17;1.90;;;;;;;;;;5055344;28;20655;-78
2022/05/15 07:09:40;;;;;;;5.30;2.00;;;;;;;;;;5054815;28;20244;-79
2022/05/15 07:12:09;;;;;;;5.28;2.20;;;;;;;;;;5054493;28;20263;-78
2022/05/15 07:14:36;;;;;;;4.68;2.80;;;;;;;;;;5054951;28;20205;-78
2022/05/15 07:17:05;;;;;;;2.25;1.80;;;;;;;;;;5054169;28;20635;-78
2022/05/15 07:19:34;;;;;;;5.45;2.70;;;;;;;;;;5055253;28;20275;-78
2022/05/15 07:22:01;;;;;;;2.85;1.92;;;;;;;;;;5054911;28;20206;-78
2022/05/15 07:24:28;;;;;;;10.73;3.50;;;;;;;;;;5055277;28;20213;-78
2022/05/15 07:26:56;;;;;;;4.82;2.63;;;;;;;;;;5054542;28;20213;-79
2022/05/15 07:29:24;;;;;;;5.93;2.60;;;;;;;;;;5055571;28;20214;-79
2022/05/15 07:31:53;;;;;;;7.40;2.15;;;;;;;;;;5054944;28;20206;-78
2022/05/15 07:34:21;;;;;;;3.80;2.28;;;;;;;;;;5056064;28;20285;-78
2022/05/15 07:36:52;;;;;;;4.00;2.60;;;;;;;;;;5055314;28;20201;-78
2022/05/15 07:39:20;;;;;;;2.97;1.88;;;;;;;;;;5055641;28;20229;-78
2022/05/15 07:41:49;;;;;;;3.22;2.15;;;;;;;;;;5054206;28;20292;-78
2022/05/15 07:44:16;;;;;;;3.83;2.20;;;;;;;;;;5055434;28;20205;-78
2022/05/15 07:46:44;;;;;;;6.68;3.45;;;;;;;;;;5055851;28;20212;-79
2022/05/15 07:49:12;;;;;;;3.97;2.28;;;;;;;;;;5055991;28;20629;-79
2022/05/15 07:51:44;;;;;;;7.90;4.40;;;;;;;;;;5054639;28;20205;-78
2022/05/15 07:54:13;;;;;;;8.18;3.65;;;;;;;;;;5055452;28;20670;-79
2022/05/15 07:56:41;;;;;;;4.15;2.20;;;;;;;;;;5054416;28;20205;-79
2022/05/15 07:59:09;;;;;;;3.78;1.73;;;;;;;;;;5054762;28;20226;-79
2022/05/15 08:01:36;;;;;;;1.90;1.60;;;;;;;;;;5055083;28;20684;-78
2022/05/15 08:04:04;;;;;;;2.50;1.65;;;;;;;;;;5055782;28;20831;-78
2022/05/15 08:09:17;;;;;;;3.20;2.22;;;;;;;;;;5056516;28;20292;-79
2022/05/15 08:11:44;;;;;;;3.42;2.28;;;;;;;;;;5054949;28;20643;-79
2022/05/15 08:14:13;;;;;;;2.13;1.88;;;;;;;;;;5055814;28;20197;-79
2022/05/15 08:16:40;;;;;;;3.22;2.10;;;;;;;;;;5055515;28;20202;-79
2022/05/15 08:24:42;;;;;;;2.20;1.70;;;;;;;;;;5055265;28;20679;-79
2022/05/15 08:27:10;;;;;;;2.38;1.95;;;;;;;;;;5055169;28;20564;-78
2022/05/15 08:29:38;;;;;;;4.50;2.28;;;;;;;;;;5054958;28;20257;-78
2022/05/15 08:32:07;;;;;;;4.15;2.42;;;;;;;;;;5054637;28;20570;-78
2022/05/15 08:34:34;;;;;;;6.57;2.72;;;;;;;;;;5055675;28;20665;-78
2022/05/15 08:37:02;;;;;;;3.00;2.10;;;;;;;;;;5055542;28;20251;-79
2022/05/15 08:39:29;;;;;;;5.15;2.65;;;;;;;;;;5055236;28;20287;-79
2022/05/15 08:42:13;;;;;;;5.50;3.03;;;;;;;;;;5052766;28;20730;-77
2022/05/15 08:44:46;;;;;;;3.92;2.40;;;;;;;;;;5054377;28;20224;-79
2022/05/15 08:47:19;;;;;;;5.15;2.28;;;;;;;;;;5054547;28;20661;-78
2022/05/15 08:49:49;;;;;;;3.60;2.35;;;;;;;;;;5054553;28;20222;-79
2022/05/15 08:52:21;;;;;;;3.20;2.13;;;;;;;;;;5054588;28;20208;-78
2022/05/15 08:54:56;;;;;;;5.93;3.25;;;;;;;;;;5054811;28;20212;-79
2022/05/15 08:57:40;;;;;;;4.75;2.40;;;;;;;;;;5052865;28;20205;-78
2022/05/15 09:00:11;;;;;;;2.90;2.63;;;;;;;;;;5054058;28;20849;-79
2022/05/15 09:02:41;;;;;;;2.97;1.90;;;;;;;;;;5054884;28;20221;-79
2022/05/15 09:05:09;;;;;;;3.90;2.08;;;;;;;;;;5054606;28;20229;-79
2022/05/15 09:07:58;;;;;;;2.95;2.28;;;;;;;;;;5054252;28;20205;-79
2022/05/15 09:10:33;;;;;;;2.92;2.15;;;;;;;;;;5053854;28;20709;-79
2022/05/15 09:13:11;;;;;;;2.60;1.80;;;;;;;;;;5054236;28;20201;-79
2022/05/15 09:15:46;;;;;;;2.80;2.60;;;;;;;;;;5054379;28;20677;-80
2022/05/15 09:18:18;;;;;;;3.00;1.92;;;;;;;;;;5054222;28;20252;-78
2022/05/15 09:20:58;;;;;;;3.22;2.15;;;;;;;;;;5054177;28;20721;-79
2022/05/15 09:23:32;;;;;;;3.28;2.03;;;;;;;;;;5053895;28;20212;-79
2022/05/15 09:26:10;;;;;;;3.72;2.17;;;;;;;;;;5054605;28;20202;-79
2022/05/15 09:28:44;;;;;;;3.67;2.60;;;;;;;;;;5054180;28;20208;-80
2022/05/15 09:31:25;;;;;;;5.93;3.08;;;;;;;;;;5055064;28;20205;-79
2022/05/15 09:33:56;;;;;;;2.88;1.77;;;;;;;;;;5053266;28;20205;-79
2022/05/15 09:36:27;;;;;;;2.80;1.85;;;;;;;;;;5053915;28;20348;-80
2022/05/15 09:39:15;;;;;;;4.90;2.10;;;;;;;;;;5054533;28;20248;-79
2022/05/15 09:44:33;;;;;;;3.28;1.98;;;;;;;;;;5054152;28;20289;-79
2022/05/15 09:47:02;;;;;;;1.88;1.67;;;;;;;;;;5054443;28;20288;-79
2022/05/15 09:49:34;;;;;;;2.42;1.60;;;;;;;;;;5053220;28;20218;-79
2022/05/15 09:52:11;;;;;;;1.95;1.77;;;;;;;;;;5052591;28;20637;-78
2022/05/15 09:54:46;;;;;;;3.50;2.05;;;;;;;;;;5053867;28;20198;-79
2022/05/15 09:57:19;;;;;;;2.40;1.90;;;;;;;;;;5054208;28;20209;-79
2022/05/15 10:00:00;;;;;;;3.42;2.22;;;;;;;;;;5054674;28;20264;-79
2022/05/15 10:02:40;;;;;;;3.63;1.88;;;;;;;;;;5053551;28;20212;-79
2022/05/15 10:05:18;;;;;;;4.05;2.38;;;;;;;;;;5053960;28;20209;-79
2022/05/15 10:07:58;;;;;;;1.60;1.50;;;;;;;;;;5052559;28;20288;-79
2022/05/15 10:10:29;;;;;;;4.18;2.05;;;;;;;;;;5053157;28;20217;-78
2022/05/15 10:13:00;;;;;;;3.08;2.00;;;;;;;;;;5052913;28;20210;-80
2022/05/15 10:15:33;;;;;;;3.72;2.25;;;;;;;;;;5052837;28;20247;-79
2022/05/15 10:18:03;;;;;;;2.45;2.20;;;;;;;;;;5052776;28;20296;-79
2022/05/15 10:20:35;;;;;;;2.95;1.77;;;;;;;;;;5053176;28;20257;-79
2022/05/15 10:23:08;;;;;;;2.50;1.40;;;;;;;;;;5050936;28;20740;-78
2022/05/15 10:25:44;;;;;;;3.00;2.00;;;;;;;;;;5053205;28;20681;-79
2022/05/15 10:28:24;;;;;;;2.40;1.95;;;;;;;;;;5053164;28;20204;-80
2022/05/15 10:31:00;;;;;;;3.03;2.10;;;;;;;;;;5052429;28;20225;-79
2022/05/15 10:33:27;;;;;;;2.47;1.73;;;;;;;;;;5050959;28;20213;-79
2022/05/15 10:36:01;;;;;;;2.08;1.60;;;;;;;;;;5054045;28;20585;-81
2022/05/15 10:38:43;;;;;;;4.00;2.35;;;;;;;;;;5056748;28;20205;-81
2022/05/15 10:41:19;;;;;;;3.60;1.73;;;;;;;;;;5056911;28;20226;-80
2022/05/15 10:44:17;;;;;;;1.90;1.77;;;;;;;;;;5055496;28;20719;-80
2022/05/15 10:46:50;;;;;;;1.50;1.40;;;;;;;;;;5037310;28;20256;-80
2022/05/15 10:49:40;;;;;;;5.13;2.33;;;;;;;;;;5037356;28;20711;-80
2022/05/15 10:52:14;;;;;;;4.25;1.48;;;;;;;;;;5036587;28;20346;-80
2022/05/15 10:57:44;;;;;;;3.67;2.28;;;;;;;;;;5036683;28;20209;-80
2022/05/15 11:00:19;;;;;;;2.92;2.22;;;;;;;;;;5036960;28;20229;-80
2022/05/15 11:03:18;;;;;;;3.92;2.25;;;;;;;;;;5035885;28;20198;-79
2022/05/15 11:06:46;;;;;;;4.30;2.10;;;;;;;;;;5036919;28;20256;-80
2022/05/15 11:09:19;;;;;;;2.55;1.90;;;;;;;;;;4956236;28;20230;-80
2022/05/15 11:11:59;;;;;;;3.70;1.98;;;;;;;;;;5027826;28;20202;-80
2022/05/15 11:14:33;;;;;;;2.53;2.00;;;;;;;;;;5037925;28;20206;-80
2022/05/15 11:17:09;;;;;;;2.30;1.88;;;;;;;;;;5056338;28;20197;-80
2022/05/15 11:19:40;;;;;;;1.48;1.38;;;;;;;;;;5055464;28;20217;-80
2022/05/15 11:22:23;;;;;;;1.70;1.60;;;;;;;;;;5055889;28;20205;-80
2022/05/15 11:24:55;;;;;;;3.03;1.65;;;;;;;;;;5056355;28;20247;-80
2022/05/15 11:27:29;;;;;;;2.53;2.33;;;;;;;;;;5056298;28;20202;-79
2022/05/15 11:30:00;;;;;;;3.08;1.92;;;;;;;;;;5056966;28;20224;-80
2022/05/15 11:32:32;;;;;;;3.70;1.67;;;;;;;;;;5058947;28;20193;-80
2022/05/15 11:35:33;;;;;;;1.40;1.30;;;;;;;;;;5061851;28;20240;-80
2022/05/15 11:38:27;;;;;;;1.23;1.05;;;;;;;;;;5060885;28;20688;-79
2022/05/15 11:40:55;;;;;;;1.25;1.00;;;;;;;;;;5044149;28;20206;-80
2022/05/15 11:43:36;;;;;;;1.88;1.50;;;;;;;;;;5046078;28;20202;-81
2022/05/15 11:46:07;;;;;;;2.15;1.73;;;;;;;;;;5059508;28;20231;-80
2022/05/15 11:48:52;;;;;;;2.67;2.20;;;;;;;;;;5063627;28;20585;-80
2022/05/15 11:51:31;;;;;;;2.67;1.88;;;;;;;;;;5065022;28;20612;-80
2022/05/15 11:54:03;;;;;;;2.20;1.80;;;;;;;;;;5064736;28;20201;-80
2022/05/15 11:56:40;;;;;;;1.95;1.75;;;;;;;;;;5065007;28;20229;-80
2022/05/15 11:59:27;;;;;;;3.25;1.95;;;;;;;;;;5063669;28;20297;-80
2022/05/15 12:01:58;;;;;;;3.30;1.65;;;;;;;;;;5063659;28;20206;-80
2022/05/15 12:05:00;;;;;;;3.17;1.77;;;;;;;;;;5066812;28;20560;-80
2022/05/15 12:07:54;;;;;;;3.38;1.85;;;;;;;;;;5058070;28;20201;-80
2022/05/15 12:10:42;;;;;;;2.38;1.75;;;;;;;;;;5063133;28;20218;-80
2022/05/15 12:13:11;;;;;;;4.18;2.17;;;;;;;;;;5064375;28;20231;-80
2022/05/15 12:15:43;;;;;;;1.85;1.75;;;;;;;;;;5065623;28;20232;-80
2022/05/15 12:18:29;;;;;;;2.25;1.70;;;;;;;;;;5064902;28;20201;-80
2022/05/15 12:20:57;;;;;;;2.22;1.70;;;;;;;;;;5063706;28;20251;-80
2022/05/15 12:23:33;;;;;;;1.52;1.40;;;;;;;;;;5062384;28;20263;-80
2022/05/15 12:26:06;;;;;;;2.25;1.73;;;;;;;;;;5063884;28;20255;-80
2022/05/15 12:28:54;;;;;;;1.38;1.17;;;;;;;;;;5064694;28;20201;-80
2022/05/15 12:31:32;;;;;;;2.45;1.30;;;;;;;;;;5062676;28;20202;-80
2022/05/15 12:34:08;;;;;;;1.58;1.40;;;;;;;;;;5064875;28;20208;-80
2022/05/15 12:36:39;;;;;;;3.15;1.90;;;;;;;;;;5061003;28;20665;-79
2022/05/15 12:39:09;;;;;;;4.50;2.30;;;;;;;;;;5062714;28;20236;-80
2022/05/15 12:41:44;;;;;;;3.35;2.22;;;;;;;;;;5064719;28;20229;-79
2022/05/15 12:44:11;;;;;;;2.47;1.65;;;;;;;;;;5063365;28;20232;-80
2022/05/15 12:46:42;;;;;;;1.60;1.50;;;;;;;;;;5061863;28;20205;-80
2022/05/15 12:49:10;;;;;;;2.13;1.55;;;;;;;;;;5062634;28;20218;-80
2022/05/15 12:51:42;;;;;;;1.75;1.65;;;;;;;;;;5062914;28;20197;-79
2022/05/15 12:54:24;;;;;;;3.28;1.50;;;;;;;;;;5060355;28;20288;-79
2022/05/15 12:56:59;;;;;;;1.98;1.33;;;;;;;;;;5065069;28;20206;-79
2022/05/15 12:59:29;;;;;;;1.40;1.30;;;;;;;;;;5062974;28;20225;-79
2022/05/15 13:01:56;;;;;;;2.35;1.58;;;;;;;;;;5064411;28;20344;-79
2022/05/15 13:04:27;;;;;;;1.52;1.42;;;;;;;;;;5064134;28;20206;-79
2022/05/15 13:06:57;;;;;;;1.45;1.35;;;;;;;;;;5061214;28;20251;-79
2022/05/15 13:09:29;;;;;;;2.67;2.05;;;;;;;;;;5061814;28;20262;-79
2022/05/15 13:11:58;;;;;;;2.17;1.70;;;;;;;;;;5061243;28;20231;-79
2022/05/15 13:14:31;;;;;;;1.70;1.60;;;;;;;;;;5060349;28;20209;-80
2022/05/15 13:16:58;;;;;;;2.45;1.92;;;;;;;;;;5061943;28;20220;-79
2022/05/15 13:19:32;;;;;;;3.30;1.95;;;;;;;;;;5062054;28;20221;-79
2022/05/15 13:22:00;;;;;;;3.13;1.77;;;;;;;;;;5060140;28;21109;-79
2022/05/15 13:24:30;;;;;;;2.33;2.03;;;;;;;;;;5061495;28;20213;-79
2022/05/15 13:26:58;;;;;;;2.97;1.67;;;;;;;;;;5063213;28;20206;-80
2022/05/15 13:29:30;;;;;;;2.30;1.50;;;;;;;;;;5064272;28;20725;-79
2022/05/15 13:31:58;;;;;;;1.80;1.50;;;;;;;;;;5061772;28;20269;-79
2022/05/15 13:34:27;;;;;;;4.13;1.80;;;;;;;;;;5063276;28;20247;-79
2022/05/15 13:36:56;;;;;;;2.45;2.13;;;;;;;;;;5062137;28;20208;-79
2022/05/15 13:45:20;;;;;;;4.63;1.83;;;;;;;;;;5012505;28;20289;-79
2022/05/15 13:48:05;;;;;;;1.88;1.63;;;;;;;;;;5000340;28;20211;-79
2022/05/15 13:50:39;;;;;;;1.63;1.52;;;;;;;;;;5033324;28;20748;-79
2022/05/15 13:53:27;;;;;;;1.42;1.33;;;;;;;;;;5058950;28;20575;-79
2022/05/15 13:55:59;;;;;;;1.95;1.80;;;;;;;;;;5057587;28;20205;-79
2022/05/15 13:58:43;;;;;;;4.10;2.08;;;;;;;;;;5058225;28;20290;-79
2022/05/15 14:01:19;;;;;;;3.17;1.95;;;;;;;;;;5058559;28;20285;-80
2022/05/15 14:03:47;;;;;;;1.80;1.70;;;;;;;;;;5057402;28;20206;-79
2022/05/15 14:06:27;;;;;;;3.38;2.13;;;;;;;;;;5058221;28;20213;-79
2022/05/15 14:09:09;;;;;;;2.47;1.40;;;;;;;;;;5058597;28;20228;-79
2022/05/15 14:11:58;;;;;;;2.85;1.67;;;;;;;;;;5058938;28;20201;-79
2022/05/15 14:15:05;;;;;;;1.10;1.10;;;;;;;;;;5059718;28;20201;-79
2022/05/15 14:17:48;;;;;;;1.65;1.55;;;;;;;;;;5016409;28;20226;-79
2022/05/15 14:20:23;;;;;;;1.30;1.20;;;;;;;;;;5018467;28;20230;-79
2022/05/15 14:22:51;;;;;;;1.48;1.38;;;;;;;;;;5045638;28;20235;-79
2022/05/15 14:25:18;;;;;;;1.73;1.30;;;;;;;;;;5061955;28;20292;-79
2022/05/15 14:27:46;;;;;;;1.50;1.40;;;;;;;;;;5060407;28;20587;-79
2022/05/15 14:30:15;;;;;;;1.63;1.52;;;;;;;;;;5057468;28;20268;-79
2022/05/15 14:32:42;;;;;;;3.05;1.73;;;;;;;;;;5055566;28;20202;-78
2022/05/15 14:35:11;;;;;;;1.73;1.63;;;;;;;;;;5057365;28;20206;-79
2022/05/15 14:37:39;;;;;;;2.47;1.90;;;;;;;;;;5057365;28;20205;-79
2022/05/15 14:40:07;;;;;;;1.85;1.55;;;;;;;;;;5058263;28;20222;-79
2022/05/15 14:42:35;;;;;;;2.58;1.92;;;;;;;;;;5055764;28;20217;-80
2022/05/15 14:45:03;;;;;;;1.70;1.40;;;;;;;;;;5058619;28;20213;-79
2022/05/15 14:47:34;;;;;;;2.05;1.77;;;;;;;;;;5058344;28;20779;-79
2022/05/15 14:50:05;;;;;;;3.05;2.08;;;;;;;;;;5058645;28;20218;-79
2022/05/15 14:52:34;;;;;;;1.80;1.50;;;;;;;;;;5059619;28;20228;-79
2022/05/15 14:55:03;;;;;;;1.23;1.13;;;;;;;;;;5060331;28;20952;-79
2022/05/15 14:57:31;;;;;;;1.75;1.40;;;;;;;;;;5059324;28;20201;-79
2022/05/15 15:00:01;;;;;;;2.60;1.83;;;;;;;;;;5059166;28;20222;-79
2022/05/15 15:02:29;;;;;;;4.50;4.13;;;;;;;;;;5057762;28;20225;-79
2022/05/15 15:04:57;;;;;;;4.28;3.28;;;;;;;;;;5059748;28;20265;-79
2022/05/15 15:07:24;;;;;;;3.13;2.08;;;;;;;;;;5055017;28;20251;-80
2022/05/15 15:09:52;;;;;;;2.38;1.88;;;;;;;;;;5057612;28;20222;-79
2022/05/15 15:12:20;;;;;;;2.28;1.98;;;;;;;;;;5056309;28;20202;-79
2022/05/15 15:14:48;;;;;;;1.98;1.52;;;;;;;;;;5059215;28;20236;-79
2022/05/15 15:17:15;;;;;;;1.55;1.45;;;;;;;;;;5058092;28;20202;-79
2022/05/15 15:19:43;;;;;;;1.25;1.13;;;;;;;;;;5057291;28;20370;-79
2022/05/15 15:22:11;;;;;;;2.38;1.50;;;;;;;;;;5056803;28;20224;-79
2022/05/15 15:24:38;;;;;;;2.50;1.67;;;;;;;;;;5059204;28;20693;-79
2022/05/15 15:27:06;;;;;;;2.67;1.92;;;;;;;;;;5060243;28;20217;-79
2022/05/15 15:29:34;;;;;;;1.63;1.50;;;;;;;;;;5059624;28;20233;-79
2022/05/15 15:32:01;;;;;;;1.70;1.60;;;;;;;;;;5056508;28;20206;-78